Time;durP1;ratioP1;P1;durP2;ratioP2;P2;SDS_P1;SDS_P2;PMS_P1;PMS_P2;Temp;Humidity;BMP_temperature;BMP_pressure;BME280_temperature;BME280_humidity;BME280_pressure;Samples;Min_cycle;Max_cycle;Signal;HPM_P1;HPM_P2
2022/05/28 00:00:50;;;;;;;15.50;3.20;;;10.30;99.90;;;;;;5095418;28;20020;-68
2022/05/28 00:03:16;;;;;;;13.95;2.97;;;10.20;99.90;;;;;;5095268;28;20394;-67
2022/05/28 00:05:41;;;;;;;17.30;3.38;;;10.20;99.90;;;;;;5094959;28;20024;-68
2022/05/28 00:08:07;;;;;;;14.65;3.10;;;10.20;99.90;;;;;;5096405;28;20028;-67
2022/05/28 00:10:33;;;;;;;14.15;3.50;;;10.10;99.90;;;;;;5096313;28;20060;-67
2022/05/28 00:12:59;;;;;;;11.40;3.30;;;10.10;99.90;;;;;;5095140;28;20069;-67
2022/05/28 00:15:25;;;;;;;17.33;3.65;;;10.10;99.90;;;;;;5095175;28;20024;-67
2022/05/28 00:17:50;;;;;;;13.70;3.13;;;10.10;99.90;;;;;;5096403;28;20052;-67
2022/05/28 00:20:16;;;;;;;12.40;3.47;;;10.10;99.90;;;;;;5096315;28;20032;-67
2022/05/28 00:22:44;;;;;;;15.18;3.72;;;10.10;99.90;;;;;;5096184;28;20103;-67
2022/05/28 00:25:12;;;;;;;11.45;2.95;;;10.00;99.90;;;;;;5096172;28;20036;-67
2022/05/28 00:27:38;;;;;;;13.75;3.50;;;10.00;99.90;;;;;;5096009;28;20059;-67
2022/05/28 00:30:05;;;;;;;16.73;3.78;;;10.10;99.90;;;;;;5094907;28;20597;-67
2022/05/28 00:32:31;;;;;;;15.35;2.67;;;10.00;99.90;;;;;;5094911;28;20386;-68
2022/05/28 00:34:56;;;;;;;18.70;3.38;;;10.10;99.90;;;;;;5094710;28;20020;-67
2022/05/28 00:37:23;;;;;;;13.55;3.38;;;10.00;99.90;;;;;;5095953;28;20028;-67
2022/05/28 00:39:48;;;;;;;16.05;3.50;;;10.00;99.90;;;;;;5094297;28;20107;-68
2022/05/28 00:42:14;;;;;;;16.00;4.13;;;9.90;99.90;;;;;;5094538;28;20119;-67
2022/05/28 00:44:39;;;;;;;10.80;3.40;;;9.90;99.90;;;;;;5077708;28;20031;-67
2022/05/28 00:47:05;;;;;;;15.65;3.45;;;10.00;99.90;;;;;;5095745;28;20017;-67
2022/05/28 00:49:32;;;;;;;13.63;3.13;;;9.90;99.90;;;;;;5095679;28;20550;-67
2022/05/28 00:52:01;;;;;;;15.43;4.18;;;10.00;99.90;;;;;;5094371;28;20042;-68
2022/05/28 00:54:32;;;;;;;13.93;3.72;;;10.00;99.90;;;;;;5094486;28;20012;-68
2022/05/28 00:56:58;;;;;;;10.45;3.40;;;9.90;99.90;;;;;;5095924;28;20024;-67
2022/05/28 00:59:24;;;;;;;15.68;3.53;;;;;;;;;;5094367;28;20482;-67
2022/05/28 01:01:54;;;;;;;16.88;4.32;;;9.80;99.90;;;;;;5095477;28;20024;-67
2022/05/28 01:04:46;;;;;;;18.17;3.65;;;9.80;99.90;;;;;;5095486;28;20024;-68
2022/05/28 01:07:44;;;;;;;17.58;3.50;;;9.80;99.90;;;;;;5095096;28;20048;-67
2022/05/28 01:10:34;;;;;;;17.45;3.70;;;9.80;99.90;;;;;;5095176;28;20389;-68
2022/05/28 01:13:40;;;;;;;14.32;3.50;;;9.90;99.90;;;;;;5095239;28;20409;-68
2022/05/28 01:16:10;;;;;;;15.55;3.80;;;9.90;99.90;;;;;;5095011;28;20037;-67
2022/05/28 01:18:45;;;;;;;19.88;3.92;;;9.90;99.90;;;;;;5095090;28;20020;-67
2022/05/28 01:21:38;;;;;;;13.35;3.13;;;10.00;99.90;;;;;;5095133;28;20416;-68
2022/05/28 01:24:13;;;;;;;17.33;4.55;;;10.00;99.90;;;;;;5094886;28;20103;-68
2022/05/28 01:27:03;;;;;;;13.15;4.03;;;9.90;99.90;;;;;;5094930;28;20032;-67
2022/05/28 01:29:36;;;;;;;12.52;3.22;;;9.90;99.90;;;;;;5094797;28;20179;-68
2022/05/28 01:32:04;;;;;;;14.70;4.18;;;9.80;99.90;;;;;;5093694;28;20024;-67
2022/05/28 01:34:31;;;;;;;15.40;4.53;;;9.80;99.90;;;;;;5093668;28;20024;-67
2022/05/28 01:36:58;;;;;;;13.63;3.97;;;9.90;99.90;;;;;;5093664;28;20019;-68
2022/05/28 01:39:24;;;;;;;17.60;3.90;;;9.90;99.90;;;;;;5094723;28;20027;-67
2022/05/28 01:41:51;;;;;;;19.95;3.28;;;9.90;99.90;;;;;;5094776;28;20111;-67
2022/05/28 01:44:17;;;;;;;17.10;4.00;;;9.90;99.90;;;;;;5093394;28;20454;-67
2022/05/28 01:46:46;;;;;;;15.25;3.78;;;9.90;99.90;;;;;;5093232;28;20036;-68
2022/05/28 01:49:15;;;;;;;18.73;4.07;;;9.90;99.90;;;;;;5094548;28;20103;-67
2022/05/28 01:51:48;;;;;;;14.07;3.15;;;9.90;99.90;;;;;;5092439;28;20036;-67
2022/05/28 01:54:16;;;;;;;18.70;4.20;;;9.90;99.90;;;;;;5093366;28;20028;-67
2022/05/28 01:56:45;;;;;;;16.60;4.20;;;9.90;99.90;;;;;;5094415;28;20024;-67
2022/05/28 01:59:13;;;;;;;10.85;3.90;;;9.80;99.90;;;;;;5094577;28;20546;-67
2022/05/28 02:01:39;;;;;;;17.67;3.65;;;9.80;99.90;;;;;;5094311;28;20151;-67
2022/05/28 02:04:06;;;;;;;20.15;3.85;;;9.80;99.90;;;;;;5094236;28;20023;-67
2022/05/28 02:06:34;;;;;;;11.48;3.75;;;9.80;99.90;;;;;;5093986;28;20039;-67
2022/05/28 02:09:00;;;;;;;19.05;4.28;;;9.80;99.90;;;;;;5092992;28;20028;-67
2022/05/28 02:11:31;;;;;;;14.23;3.72;;;9.90;99.90;;;;;;5094156;28;20027;-67
2022/05/28 02:14:22;;;;;;;13.90;3.40;;;10.00;99.90;;;;;;5092874;28;20047;-68
2022/05/28 02:16:57;;;;;;;12.13;3.88;;;10.10;99.90;;;;;;5092854;28;20074;-67
2022/05/28 02:19:32;;;;;;;15.15;4.22;;;10.20;99.90;;;;;;5094050;28;20032;-68
2022/05/28 02:22:06;;;;;;;19.60;4.15;;;10.10;99.90;;;;;;5093930;28;20016;-67
2022/05/28 02:24:43;;;;;;;16.25;4.28;;;10.10;99.90;;;;;;5093954;28;20020;-67
2022/05/28 02:27:13;;;;;;;15.43;3.72;;;10.10;99.90;;;;;;5093792;28;20038;-67
2022/05/28 02:29:39;;;;;;;10.30;3.45;;;10.10;99.90;;;;;;5093841;28;20024;-67
2022/05/28 02:32:22;;;;;;;19.13;4.35;;;10.10;99.90;;;;;;5093727;28;20103;-67
2022/05/28 02:34:50;;;;;;;14.90;3.70;;;10.20;99.90;;;;;;5092712;28;20024;-67
2022/05/28 02:37:19;;;;;;;13.25;3.95;;;10.20;99.90;;;;;;5092648;28;20512;-67
2022/05/28 02:39:45;;;;;;;10.95;3.28;;;10.30;99.90;;;;;;5092564;28;20492;-67
2022/05/28 02:42:11;;;;;;;11.57;3.60;;;10.30;99.90;;;;;;5093622;28;20028;-67
2022/05/28 02:44:36;;;;;;;17.63;4.53;;;10.30;99.90;;;;;;5093608;28;20508;-67
2022/05/28 02:47:03;;;;;;;21.33;4.45;;;10.30;99.90;;;;;;5093537;28;20028;-67
2022/05/28 02:49:29;;;;;;;12.25;3.55;;;10.30;99.90;;;;;;5092223;28;20024;-67
2022/05/28 02:51:55;;;;;;;14.40;3.90;;;10.30;99.90;;;;;;5093467;28;20032;-67
2022/05/28 02:54:22;;;;;;;14.98;3.60;;;10.30;99.90;;;;;;5092376;28;20173;-67
2022/05/28 02:56:48;;;;;;;18.42;5.25;;;10.30;99.90;;;;;;5092277;28;20509;-67
2022/05/28 02:59:14;;;;;;;19.95;4.10;;;10.30;99.90;;;;;;5093384;28;20386;-67
2022/05/28 03:01:40;;;;;;;17.67;3.60;;;10.20;99.90;;;;;;5092057;28;20026;-67
2022/05/28 03:04:08;;;;;;;15.05;4.18;;;10.30;99.90;;;;;;5093301;28;20024;-67
2022/05/28 03:06:35;;;;;;;14.57;4.20;;;10.30;99.90;;;;;;5091927;28;20044;-67
2022/05/28 03:09:02;;;;;;;16.30;4.30;;;10.30;99.90;;;;;;5093265;28;20486;-67
2022/05/28 03:11:27;;;;;;;17.05;4.22;;;10.40;99.90;;;;;;5093230;28;20016;-67
2022/05/28 03:13:53;;;;;;;16.10;4.03;;;10.40;99.90;;;;;;5093269;28;20035;-67
2022/05/28 03:16:18;;;;;;;15.68;4.38;;;10.50;99.90;;;;;;5091935;28;20020;-67
2022/05/28 03:18:44;;;;;;;15.48;4.20;;;10.50;99.90;;;;;;5093151;28;20045;-67
2022/05/28 03:21:10;;;;;;;17.65;4.57;;;10.40;99.90;;;;;;5093184;28;20070;-67
2022/05/28 03:23:35;;;;;;;15.63;5.03;;;10.40;99.90;;;;;;5093159;28;20024;-67
2022/05/28 03:26:21;;;;;;;12.15;3.95;;;10.50;99.90;;;;;;5093113;28;20029;-67
2022/05/28 03:28:49;;;;;;;17.30;5.03;;;10.50;99.90;;;;;;5093186;28;20031;-67
2022/05/28 03:31:15;;;;;;;26.25;4.93;;;10.60;99.90;;;;;;5092025;28;20077;-67
2022/05/28 03:33:40;;;;;;;15.80;6.13;;;10.60;99.90;;;;;;5091874;28;20038;-67
2022/05/28 03:36:06;;;;;;;21.92;4.65;;;10.60;99.90;;;;;;5093035;28;20099;-67
2022/05/28 03:38:33;;;;;;;17.60;4.88;;;10.60;99.90;;;;;;5091728;28;20062;-67
2022/05/28 03:40:58;;;;;;;19.20;4.80;;;10.70;99.90;;;;;;5093030;28;20017;-67
2022/05/28 03:43:25;;;;;;;14.25;4.05;;;10.70;99.90;;;;;;5091682;28;20363;-68
2022/05/28 03:45:51;;;;;;;19.00;5.07;;;10.70;99.90;;;;;;5092988;28;20021;-67
2022/05/28 03:48:17;;;;;;;19.95;5.53;;;10.60;99.90;;;;;;5092911;28;20032;-67
2022/05/28 03:50:42;;;;;;;20.98;5.15;;;10.60;99.90;;;;;;5092910;28;20062;-67
2022/05/28 03:53:08;;;;;;;16.00;4.43;;;10.60;99.90;;;;;;5092843;28;20471;-67
2022/05/28 03:55:33;;;;;;;16.63;4.57;;;10.50;99.90;;;;;;5074808;28;20035;-67
2022/05/28 03:57:59;;;;;;;17.48;5.10;;;10.40;99.90;;;;;;5092865;28;20024;-67
2022/05/28 04:00:24;;;;;;;21.38;5.72;;;10.30;99.90;;;;;;5092885;28;20360;-67
2022/05/28 04:02:50;;;;;;;16.05;4.38;;;10.30;99.90;;;;;;5092849;28;20032;-67
2022/05/28 04:05:16;;;;;;;15.57;4.68;;;10.30;99.90;;;;;;5092843;28;20028;-67
2022/05/28 04:07:41;;;;;;;20.25;4.65;;;10.20;99.90;;;;;;5092550;28;20412;-67
2022/05/28 04:10:08;;;;;;;16.45;4.57;;;10.20;99.90;;;;;;5091534;28;20050;-67
2022/05/28 04:12:33;;;;;;;15.85;5.15;;;10.20;99.90;;;;;;5092732;28;20532;-67
2022/05/28 04:14:59;;;;;;;17.08;4.43;;;10.30;99.90;;;;;;5095057;28;20012;-67
2022/05/28 04:17:25;;;;;;;23.42;5.55;;;10.30;99.90;;;;;;5096441;28;20032;-67
2022/05/28 04:19:51;;;;;;;25.75;6.88;;;10.20;99.90;;;;;;5096386;28;20035;-67
2022/05/28 04:22:16;;;;;;;20.58;5.10;;;10.30;99.90;;;;;;5095239;28;20031;-67
2022/05/28 04:24:42;;;;;;;17.15;4.60;;;10.40;99.90;;;;;;5096213;28;20367;-67
2022/05/28 04:27:07;;;;;;;20.33;5.45;;;10.50;99.90;;;;;;5096060;28;20073;-67
2022/05/28 04:29:33;;;;;;;10.13;4.80;;;10.50;99.90;;;;;;5077984;28;20422;-67
2022/05/28 04:31:58;;;;;;;17.55;4.88;;;10.60;99.90;;;;;;5096121;28;20496;-67
2022/05/28 04:34:24;;;;;;;12.82;4.25;;;11.10;99.90;;;;;;5096011;28;20382;-68
2022/05/28 04:36:49;;;;;;;13.80;4.30;;;11.40;99.90;;;;;;5094701;28;20104;-68
2022/05/28 04:39:15;;;;;;;19.13;4.88;;;12.00;99.90;;;;;;5094605;28;20024;-68
2022/05/28 04:41:41;;;;;;;19.08;4.30;;;11.90;99.90;;;;;;5095853;28;20028;-68
2022/05/28 04:44:06;;;;;;;17.55;4.00;;;12.30;99.90;;;;;;5095828;28;20390;-68
2022/05/28 04:46:32;;;;;;;15.95;4.28;;;13.00;99.90;;;;;;5095738;28;20119;-68
2022/05/28 04:48:57;;;;;;;12.13;3.45;;;13.60;99.90;;;;;;5094425;28;20099;-68
2022/05/28 04:51:23;;;;;;;9.40;3.42;;;13.90;99.90;;;;;;5094384;28;20401;-68
2022/05/28 04:53:49;;;;;;;12.70;3.60;;;14.50;99.90;;;;;;5095699;28;20012;-68
2022/05/28 04:56:15;;;;;;;11.27;3.25;;;14.90;99.90;;;;;;5095557;28;20032;-69
2022/05/28 04:58:42;;;;;;;12.65;3.50;;;14.60;99.90;;;;;;5095478;28;20024;-68
2022/05/28 05:01:12;;;;;;;9.63;3.17;;;14.80;99.90;;;;;;5094065;28;20072;-68
2022/05/28 05:03:37;;;;;;;10.43;3.33;;;15.00;99.90;;;;;;5095459;28;20020;-68
2022/05/28 05:06:03;;;;;;;13.48;3.40;;;14.40;99.90;;;;;;5095270;28;20048;-68
2022/05/28 05:08:29;;;;;;;14.18;3.22;;;13.80;99.90;;;;;;5095325;28;20028;-68
2022/05/28 05:10:54;;;;;;;15.73;4.15;;;13.30;99.90;;;;;;5095676;28;20020;-68
2022/05/28 05:13:20;;;;;;;11.02;3.47;;;12.90;99.90;;;;;;5095341;28;20028;-68
2022/05/28 05:15:45;;;;;;;12.10;3.25;;;12.90;99.90;;;;;;5094009;28;20028;-68
2022/05/28 05:18:11;;;;;;;11.57;3.20;;;12.90;99.90;;;;;;5095193;28;20032;-68
2022/05/28 05:20:36;;;;;;;11.68;3.38;;;13.20;99.90;;;;;;5095183;28;20107;-68
2022/05/28 05:23:02;;;;;;;13.18;3.42;;;13.70;99.90;;;;;;5095129;28;20020;-68
2022/05/28 05:25:28;;;;;;;8.63;2.95;;;14.30;99.90;;;;;;5095069;28;20020;-69
2022/05/28 05:27:53;;;;;;;7.80;3.08;;;14.40;99.90;;;;;;5094953;28;20086;-68
2022/05/28 05:30:19;;;;;;;14.90;3.10;;;15.20;99.90;;;;;;5094918;28;20016;-69
2022/05/28 05:32:45;;;;;;;12.38;3.28;;;15.10;99.90;;;;;;5094848;28;20470;-68
2022/05/28 05:35:10;;;;;;;7.10;2.78;;;15.30;99.90;;;;;;5094861;28;20046;-69
2022/05/28 05:37:36;;;;;;;11.32;3.05;;;15.30;99.90;;;;;;5094768;28;20028;-68
2022/05/28 05:40:03;;;;;;;11.38;3.00;;;16.00;99.90;;;;;;5093440;28;20118;-69
2022/05/28 05:42:28;;;;;;;10.45;2.72;;;16.80;99.90;;;;;;5094739;28;20463;-69
2022/05/28 05:44:54;;;;;;;11.88;2.75;;;17.60;99.90;;;;;;5094727;28;20060;-69
2022/05/28 05:47:20;;;;;;;8.10;2.50;;;17.10;99.90;;;;;;5094612;28;20035;-69
2022/05/28 05:49:45;;;;;;;9.10;2.60;;;16.10;99.90;;;;;;5094551;28;20078;-68
2022/05/28 05:52:11;;;;;;;8.50;2.58;;;16.00;99.90;;;;;;5094513;28;20059;-69
2022/05/28 05:54:36;;;;;;;11.32;2.40;;;16.10;99.90;;;;;;5093256;28;20489;-68
2022/05/28 05:57:02;;;;;;;11.88;2.40;;;15.70;99.90;;;;;;5094502;28;20103;-69
2022/05/28 05:59:28;;;;;;;8.52;2.40;;;16.10;99.90;;;;;;5093065;28;20040;-68
2022/05/28 06:01:54;;;;;;;14.07;2.30;;;16.50;99.90;;;;;;5094390;28;20030;-68
2022/05/28 06:04:20;;;;;;;7.15;2.08;;;16.70;99.90;;;;;;5094418;28;20038;-68
2022/05/28 06:06:45;;;;;;;5.50;1.50;;;16.90;99.90;;;;;;5094099;28;20559;-69
2022/05/28 06:09:11;;;;;;;7.65;2.17;;;16.30;99.90;;;;;;5092944;28;20020;-69
2022/05/28 06:11:37;;;;;;;10.13;2.38;;;16.30;99.90;;;;;;5094173;28;20024;-69
2022/05/28 06:14:03;;;;;;;8.73;2.17;;;15.80;99.90;;;;;;5094173;28;20024;-69
2022/05/28 06:16:29;;;;;;;10.52;2.08;;;15.90;99.90;;;;;;5094099;28;20497;-69
2022/05/28 06:18:54;;;;;;;11.40;2.30;;;16.40;99.90;;;;;;5092818;28;20028;-69
2022/05/28 06:21:20;;;;;;;7.82;1.83;;;16.00;99.90;;;;;;5075869;28;20028;-69
2022/05/28 06:23:46;;;;;;;9.13;2.35;;;15.70;99.90;;;;;;5093905;28;20115;-68
2022/05/28 06:26:12;;;;;;;10.50;2.25;;;16.40;99.90;;;;;;5092678;28;20488;-70
2022/05/28 06:28:38;;;;;;;10.38;2.28;;;17.20;99.90;;;;;;5093852;28;20024;-69
2022/05/28 06:31:07;;;;;;;7.28;2.00;;;17.70;99.90;;;;;;5093817;28;20024;-69
2022/05/28 06:33:35;;;;;;;4.65;1.58;;;17.90;99.90;;;;;;5093774;28;20069;-69
2022/05/28 06:36:02;;;;;;;8.27;2.00;;;18.90;99.90;;;;;;5093702;28;20077;-69
2022/05/28 06:38:28;;;;;;;7.50;2.00;;;18.60;99.90;;;;;;5093268;28;20020;-69
2022/05/28 06:40:54;;;;;;;9.10;2.17;;;17.80;99.90;;;;;;5092435;28;20051;-69
2022/05/28 06:43:20;;;;;;;10.40;2.25;;;16.20;99.90;;;;;;5093702;28;20035;-69
2022/05/28 06:45:46;;;;;;;9.90;1.98;;;15.70;99.90;;;;;;5093582;28;20064;-69
2022/05/28 06:48:12;;;;;;;8.57;1.85;;;14.60;99.90;;;;;;5092249;28;20026;-69
2022/05/28 06:51:09;;;;;;;10.02;2.25;;;14.20;99.90;;;;;;5093519;28;20027;-69
2022/05/28 06:53:24;;;;;;;9.77;2.10;;;13.80;99.90;;;;;;5093342;28;20023;-69
2022/05/28 06:55:50;;;;;;;10.02;2.65;;;13.90;99.90;;;;;;5093442;28;20031;-68
2022/05/28 06:58:16;;;;;;;9.95;2.25;;;13.80;99.90;;;;;;5093422;28;20381;-69
2022/05/28 07:00:42;;;;;;;14.35;2.63;;;13.50;99.90;;;;;;5093396;28;20609;-68
2022/05/28 07:03:18;;;;;;;9.15;2.17;;;13.30;99.90;;;;;;5093378;28;20024;-68
2022/05/28 07:05:43;;;;;;;9.70;2.38;;;14.30;99.90;;;;;;5093361;28;20057;-69
2022/05/28 07:08:09;;;;;;;14.65;2.05;;;14.20;99.90;;;;;;5093252;28;20020;-68
2022/05/28 07:10:38;;;;;;;10.18;2.10;;;14.70;99.90;;;;;;5092168;28;20021;-69
2022/05/28 07:13:05;;;;;;;11.75;1.90;;;15.50;99.90;;;;;;5093365;28;20085;-68
2022/05/28 07:15:31;;;;;;;6.07;1.90;;;16.90;99.90;;;;;;5093279;28;20435;-69
2022/05/28 07:17:56;;;;;;;9.15;1.85;;;16.30;99.90;;;;;;5075319;28;20023;-69
2022/05/28 07:20:22;;;;;;;8.32;2.08;;;16.00;99.90;;;;;;5093387;28;20036;-70
2022/05/28 07:22:47;;;;;;;7.50;2.42;;;15.70;99.90;;;;;;5091960;28;20036;-68
2022/05/28 07:25:12;;;;;;;7.13;1.98;;;17.20;99.90;;;;;;5093172;28;20470;-70
2022/05/28 07:27:38;;;;;;;6.22;1.63;;;18.40;99.40;;;;;;5091890;28;20039;-69
2022/05/28 07:30:04;;;;;;;9.57;1.92;;;18.00;99.70;;;;;;5093109;28;20390;-68
2022/05/28 07:32:30;;;;;;;9.70;1.90;;;16.30;99.90;;;;;;5093104;28;20027;-69
2022/05/28 07:34:57;;;;;;;10.35;2.10;;;15.30;99.90;;;;;;5093109;28;20526;-68
2022/05/28 07:37:24;;;;;;;7.55;2.08;;;15.00;99.90;;;;;;5093148;28;20020;-69
2022/05/28 07:39:50;;;;;;;9.52;1.92;;;14.90;99.90;;;;;;5091861;28;20085;-68
2022/05/28 07:42:15;;;;;;;8.20;2.00;;;14.70;99.90;;;;;;5092929;28;20028;-68
2022/05/28 07:44:40;;;;;;;10.57;2.15;;;15.10;99.90;;;;;;5091779;28;20025;-68
2022/05/28 07:47:07;;;;;;;15.02;2.25;;;15.60;99.90;;;;;;5091675;28;20423;-68
2022/05/28 07:49:35;;;;;;;13.60;2.08;;;15.40;99.90;;;;;;5093507;28;20016;-68
2022/05/28 07:52:01;;;;;;;8.45;1.90;;;15.20;99.90;;;;;;5096710;28;20569;-69
2022/05/28 07:54:27;;;;;;;7.90;2.15;;;14.90;99.90;;;;;;5096839;28;20058;-69
2022/05/28 07:56:53;;;;;;;8.07;2.20;;;15.60;99.90;;;;;;5095553;28;20104;-69
2022/05/28 07:59:19;;;;;;;6.85;1.70;;;16.50;99.90;;;;;;5095423;28;20502;-69
2022/05/28 08:01:44;;;;;;;7.43;1.63;;;16.70;99.90;;;;;;5096545;28;20020;-69
2022/05/28 08:04:10;;;;;;;6.70;1.90;;;17.90;99.90;;;;;;5095384;28;20032;-69
2022/05/28 08:06:37;;;;;;;13.23;1.80;;;18.60;98.70;;;;;;5096402;28;20413;-69
2022/05/28 08:09:05;;;;;;;9.15;1.85;;;20.00;95.00;;;;;;5096495;28;20016;-70
2022/05/28 08:11:30;;;;;;;12.80;2.30;;;19.90;93.60;;;;;;5096482;28;20097;-69
2022/05/28 08:13:56;;;;;;;7.30;2.00;;;19.30;95.00;;;;;;5096464;28;20477;-69
2022/05/28 08:16:22;;;;;;;9.40;2.25;;;18.70;94.80;;;;;;5078356;28;20024;-69
2022/05/28 08:18:48;;;;;;;6.65;2.00;;;18.30;96.10;;;;;;5095544;28;20492;-70
2022/05/28 08:24:00;;;;;;;10.60;1.85;;;16.60;98.60;;;;;;5096532;28;20069;-69
2022/05/28 08:26:26;;;;;;;8.25;2.17;;;16.40;99.90;;;;;;5095280;28;20020;-69
2022/05/28 08:28:53;;;;;;;7.72;1.85;;;16.30;99.90;;;;;;5094810;28;20016;-69
2022/05/28 08:31:19;;;;;;;5.70;1.65;;;15.80;99.90;;;;;;5096030;28;20020;-69
2022/05/28 08:33:46;;;;;;;8.25;1.80;;;15.70;99.90;;;;;;5094813;28;20020;-69
2022/05/28 08:36:12;;;;;;;7.15;1.77;;;16.20;99.90;;;;;;5095850;28;20491;-70
2022/05/28 08:38:39;;;;;;;7.32;1.50;;;17.00;98.60;;;;;;5095853;28;20077;-70
2022/05/28 08:41:15;;;;;;;9.77;1.88;;;16.70;98.00;;;;;;5095884;28;20039;-70
2022/05/28 08:44:13;;;;;;;8.25;1.75;;;16.50;99.80;;;;;;5095896;28;20048;-69
2022/05/28 08:46:43;;;;;;;10.40;2.10;;;16.10;99.90;;;;;;5094602;28;20461;-70
2022/05/28 08:49:10;;;;;;;7.32;1.90;;;15.70;99.90;;;;;;5094514;28;20439;-69
2022/05/28 08:51:42;;;;;;;11.38;2.60;;;15.30;99.90;;;;;;5077754;28;20059;-70
2022/05/28 08:54:31;;;;;;;7.32;1.80;;;15.40;99.90;;;;;;5095656;28;20016;-69
2022/05/28 08:57:02;;;;;;;7.40;2.30;;;16.40;99.90;;;;;;5095517;28;20050;-70
2022/05/28 08:59:34;;;;;;;10.43;1.75;;;16.70;99.90;;;;;;5095309;28;20052;-70
2022/05/28 09:02:01;;;;;;;6.65;1.70;;;16.00;99.90;;;;;;5094394;28;20028;-69
2022/05/28 09:04:34;;;;;;;5.13;1.85;;;15.80;99.90;;;;;;5095473;28;20020;-70
2022/05/28 09:07:11;;;;;;;7.30;1.70;;;15.40;99.90;;;;;;5095191;28;20552;-70
2022/05/28 09:09:42;;;;;;;8.40;2.10;;;15.50;99.90;;;;;;5095308;28;20020;-70
2022/05/28 09:12:15;;;;;;;7.53;1.70;;;15.50;99.90;;;;;;5095264;28;20020;-69
2022/05/28 09:14:41;;;;;;;5.85;1.60;;;15.30;99.90;;;;;;5095212;28;20119;-70
2022/05/28 09:17:28;;;;;;;11.13;2.00;;;15.10;99.90;;;;;;5076991;28;20492;-69
2022/05/28 09:20:00;;;;;;;7.07;2.20;;;15.00;99.90;;;;;;5095157;28;20395;-69
2022/05/28 09:22:26;;;;;;;7.07;1.85;;;15.00;99.90;;;;;;5093946;28;20035;-69
2022/05/28 09:24:51;;;;;;;10.30;1.90;;;14.90;99.90;;;;;;5095202;28;20019;-69
2022/05/28 09:27:42;;;;;;;7.15;2.30;;;15.00;99.90;;;;;;5094954;28;20028;-70
2022/05/28 09:30:47;;;;;;;7.38;1.92;;;15.20;99.90;;;;;;5093571;28;20031;-70
2022/05/28 09:33:40;;;;;;;8.73;1.88;;;15.70;99.90;;;;;;5094710;28;20035;-69
2022/05/28 09:36:17;;;;;;;10.23;2.17;;;16.50;99.90;;;;;;5094715;28;20478;-70
2022/05/28 09:38:58;;;;;;;8.45;2.00;;;16.80;99.90;;;;;;5094803;28;20024;-69
2022/05/28 09:41:49;;;;;;;9.85;2.15;;;16.50;99.90;;;;;;5093500;28;20394;-70
2022/05/28 09:44:28;;;;;;;9.45;2.15;;;17.20;99.90;;;;;;5094614;28;20024;-69
2022/05/28 09:46:54;;;;;;;10.00;2.15;;;17.30;99.90;;;;;;5093395;28;20031;-69
2022/05/28 09:49:23;;;;;;;6.32;1.90;;;17.10;99.90;;;;;;5094539;28;20028;-69
2022/05/28 09:51:55;;;;;;;7.22;2.10;;;18.00;99.90;;;;;;5094466;28;20027;-70
2022/05/28 09:54:25;;;;;;;4.95;1.70;;;18.60;96.20;;;;;;5094536;28;20039;-69
2022/05/28 09:56:57;;;;;;;6.80;1.90;;;19.70;94.70;;;;;;5094569;28;20028;-69
2022/05/28 09:59:47;;;;;;;8.63;1.95;;;19.50;93.00;;;;;;5094527;28;20046;-70
2022/05/28 10:02:21;;;;;;;6.72;2.05;;;19.10;93.90;;;;;;5094362;28;20030;-70
2022/05/28 10:04:56;;;;;;;6.47;1.80;;;19.60;94.10;;;;;;5094195;28;20425;-70
2022/05/28 10:07:41;;;;;;;7.43;1.80;;;19.40;93.20;;;;;;5093836;28;20043;-70
2022/05/28 10:10:29;;;;;;;8.52;1.85;;;18.60;94.10;;;;;;5094034;28;20027;-69
2022/05/28 10:13:16;;;;;;;9.20;1.95;;;17.70;96.10;;;;;;5093436;28;20078;-70
2022/05/28 10:15:46;;;;;;;6.70;1.73;;;17.00;97.70;;;;;;5093991;28;20073;-70
2022/05/28 10:18:16;;;;;;;8.80;2.17;;;16.40;98.50;;;;;;5094005;28;20020;-70
2022/05/28 10:20:42;;;;;;;7.65;1.73;;;16.30;99.80;;;;;;5093931;28;20024;-69
2022/05/28 10:23:14;;;;;;;7.25;2.03;;;16.10;99.90;;;;;;5092590;28;20032;-70
2022/05/28 10:25:48;;;;;;;8.17;2.63;;;16.00;99.90;;;;;;5092581;28;20085;-70
2022/05/28 10:28:26;;;;;;;7.43;1.88;;;15.80;99.90;;;;;;5093835;28;20503;-69
2022/05/28 10:30:53;;;;;;;5.82;1.70;;;15.40;99.90;;;;;;5093835;28;20024;-70
2022/05/28 10:33:23;;;;;;;6.85;1.60;;;15.40;99.90;;;;;;5092633;28;20024;-69
2022/05/28 10:35:49;;;;;;;6.65;1.92;;;15.30;99.90;;;;;;5093688;28;20462;-69
2022/05/28 10:38:21;;;;;;;9.25;1.80;;;15.30;99.90;;;;;;5093740;28;20020;-70
2022/05/28 10:41:12;;;;;;;9.60;1.90;;;15.60;99.90;;;;;;5092558;28;20066;-69
2022/05/28 10:43:38;;;;;;;10.65;2.20;;;15.90;99.90;;;;;;5093636;28;20063;-70
2022/05/28 10:49:28;;;;;;;10.70;2.40;;;16.20;99.90;;;;;;5070557;28;20407;-69
2022/05/28 10:52:13;;;;;;;9.77;2.15;;;17.70;98.40;;;;;;5070369;28;20036;-69
2022/05/28 10:57:45;;;;;;;7.97;1.80;;;18.30;97.90;;;;;;5111254;27;20178;-70
2022/05/28 11:00:15;;;;;;;6.45;2.00;;;17.40;98.30;;;;;;5110850;28;20040;-69
2022/05/28 11:03:23;;;;;;;8.77;2.10;;;16.70;98.40;;;;;;5110982;28;20042;-69
2022/05/28 11:06:06;;;;;;;5.60;1.95;;;16.10;99.20;;;;;;5110838;28;20019;-69
2022/05/28 11:12:01;;;;;;;8.75;2.03;;;15.60;99.90;;;;;;5111138;27;20343;-69
2022/05/28 11:15:06;;;;;;;10.68;2.28;;;15.50;99.90;;;;;;5109649;28;20059;-70
2022/05/28 11:18:17;;;;;;;9.70;2.15;;;16.70;99.90;;;;;;5110691;28;20040;-69
2022/05/28 11:21:00;;;;;;;6.78;1.80;;;17.70;99.90;;;;;;5110728;28;20485;-69
2022/05/28 11:24:06;;;;;;;5.18;1.88;;;17.70;99.90;;;;;;5110915;28;20024;-69
2022/05/28 11:29:55;;;;;;;6.15;1.90;;;18.90;99.90;;;;;;5111123;27;20380;-70
2022/05/28 11:32:30;;;;;;;7.82;2.22;;;18.80;98.60;;;;;;5110910;28;20509;-69
2022/05/28 11:35:17;;;;;;;7.45;1.90;;;19.10;98.50;;;;;;5110920;28;20020;-69
2022/05/28 11:37:55;;;;;;;7.90;2.17;;;19.30;98.50;;;;;;5110842;28;20020;-69
2022/05/28 11:40:29;;;;;;;10.85;2.28;;;19.00;98.10;;;;;;5110925;28;20050;-69
2022/05/28 11:43:05;;;;;;;11.02;2.40;;;18.80;96.60;;;;;;5110833;28;20028;-69
2022/05/28 11:45:41;;;;;;;8.63;2.13;;;18.80;96.50;;;;;;5110986;28;20485;-69
2022/05/28 11:48:16;;;;;;;6.45;2.13;;;18.90;98.30;;;;;;5110525;28;20111;-69
2022/05/28 11:51:27;;;;;;;6.93;2.20;;;18.70;97.40;;;;;;5110838;28;20401;-69
2022/05/28 11:53:45;;;;;;;9.45;2.65;;;18.70;97.00;;;;;;5110493;28;20028;-69
2022/05/28 11:56:17;;;;;;;7.45;2.20;;;18.30;98.40;;;;;;5092626;28;20027;-69
2022/05/28 11:58:47;;;;;;;10.20;2.42;;;18.30;99.00;;;;;;5110501;28;20541;-69
2022/05/28 12:01:21;;;;;;;7.72;2.47;;;18.00;98.30;;;;;;5110462;28;20539;-69
2022/05/28 12:03:47;;;;;;;9.77;2.15;;;17.70;99.70;;;;;;5109246;28;20024;-69
2022/05/28 12:09:18;;;;;;;8.35;2.30;;;17.60;98.50;;;;;;5111026;27;20825;-69
2022/05/28 12:11:51;;;;;;;8.07;2.20;;;18.30;98.40;;;;;;5109689;28;20071;-69
2022/05/28 12:14:28;;;;;;;9.30;1.85;;;18.70;97.70;;;;;;5109798;28;20047;-70
2022/05/28 12:17:08;;;;;;;5.22;2.03;;;18.40;95.90;;;;;;5110938;28;20036;-69
2022/05/28 12:19:43;;;;;;;9.05;2.20;;;18.20;96.10;;;;;;5109565;28;20106;-70
2022/05/28 12:22:24;;;;;;;6.72;2.05;;;17.90;96.00;;;;;;5109761;28;20076;-69
2022/05/28 12:25:16;;;;;;;8.93;2.38;;;18.00;97.60;;;;;;5110733;28;20069;-69
2022/05/28 12:30:39;;;;;;;6.60;2.50;;;18.60;97.00;;;;;;5070564;28;20361;-68
2022/05/28 12:33:17;;;;;;;7.43;2.03;;;18.00;95.20;;;;;;5069451;28;20024;-68
2022/05/28 12:36:06;;;;;;;9.45;2.20;;;17.90;93.80;;;;;;5070389;28;20021;-69
2022/05/28 12:38:55;;;;;;;3.92;1.90;;;17.80;92.20;;;;;;5070319;28;20031;-69
2022/05/28 12:41:29;;;;;;;7.95;2.20;;;18.00;92.50;;;;;;5069105;28;20056;-68
2022/05/28 12:44:16;;;;;;;6.30;1.88;;;17.80;92.00;;;;;;5070287;28;20028;-68
2022/05/28 12:46:56;;;;;;;7.43;2.47;;;17.80;93.10;;;;;;5068839;28;20021;-69
2022/05/28 12:49:26;;;;;;;9.35;1.83;;;17.60;93.10;;;;;;5070085;28;20028;-68
2022/05/28 12:52:24;;;;;;;5.20;1.50;;;17.80;92.40;;;;;;5052263;28;20048;-69
2022/05/28 12:55:19;;;;;;;7.93;2.00;;;18.10;92.20;;;;;;5070021;28;20059;-68
2022/05/28 12:58:02;;;;;;;4.75;1.73;;;18.60;91.60;;;;;;5068710;28;20479;-68
2022/05/28 13:00:34;;;;;;;7.25;1.75;;;18.60;88.70;;;;;;5068782;28;20059;-68
2022/05/28 13:02:59;;;;;;;10.50;1.98;;;18.50;87.60;;;;;;5069766;28;20025;-68
2022/05/28 13:05:39;;;;;;;6.30;2.00;;;18.50;88.50;;;;;;5069987;28;20032;-68
2022/05/28 13:08:25;;;;;;;6.85;2.20;;;18.30;88.10;;;;;;5069674;28;20025;-68
2022/05/28 13:10:55;;;;;;;6.25;1.90;;;18.30;88.10;;;;;;5068355;28;20028;-68
2022/05/28 13:13:42;;;;;;;4.50;1.75;;;18.40;87.10;;;;;;5068300;28;20023;-68
2022/05/28 13:16:31;;;;;;;11.18;2.03;;;18.60;86.10;;;;;;5068220;28;20158;-68
2022/05/28 13:19:37;;;;;;;9.35;1.95;;;19.00;88.90;;;;;;5069476;28;20036;-69
2022/05/28 13:22:37;;;;;;;7.30;2.20;;;18.80;87.20;;;;;;5069218;28;20054;-69
2022/05/28 13:25:29;;;;;;;13.25;2.88;;;18.20;90.20;;;;;;5069211;28;20491;-69